KOCW/OCW METAR and TAF weather

Enter ICAO airport designator
Station Type Date Time Source
KOCW METAR 2021/01/20 22:35 UTC NOAA

KOCW 202235Z AUTO 33004KT 10SM CLR 09/M07 A3012 RMK AO2 T00891066


Station Type Date Time Source
KOCW Decoded METAR 2021/01/20 22:35 UTC NOAA

Washington, Warren Field Airport, NC, United States (KOCW) 35-34-14N 077-02-59W
Jan 20, 2021 - 05:35 PM EST / 2021.01.20 2235 UTC
Wind: from the NNW (330 degrees) at 5 MPH (4 KT):0
Visibility: 10 mile(s):0
Sky conditions: clear
Temperature: 48.0 F (8.9 C)
Dew Point: 20.1 F (-6.6 C)
Relative Humidity: 32%
Pressure (altimeter): 30.12 in. Hg (1019 hPa)
ob: KOCW 202235Z AUTO 33004KT 10SM CLR 09/M07 A3012 RMK AO2 T00891066
cycle: 22

Station Type Date Time Source
KOCW TAF UTC NOAA

Error!

Example: see airport list